Time;durP1;ratioP1;P1;durP2;ratioP2;P2;SDS_P1;SDS_P2;PMS_P1;PMS_P2;Temp;Humidity;BMP_temperature;BMP_pressure;BME280_temperature;BME280_humidity;BME280_pressure;Samples;Min_cycle;Max_cycle;Signal;HPM_P1;HPM_P2
2022/09/23 00:02:17;;;;;;;5.10;2.37;;;;;;;6.48;97.51;101679.41;5032486;28;20936;-70
2022/09/23 00:04:45;;;;;;;4.73;2.37;;;;;;;6.49;97.01;101675.66;5033281;28;20467;-68
2022/09/23 00:07:12;;;;;;;6.07;2.30;;;;;;;6.35;96.04;101681.63;5032869;28;20459;-68
2022/09/23 00:09:38;;;;;;;6.03;2.53;;;;;;;6.29;96.32;101678.84;5033203;28;20486;-68
2022/09/23 00:12:05;;;;;;;6.73;2.70;;;;;;;6.14;96.23;101670.53;5031305;28;20875;-68
2022/09/23 00:14:32;;;;;;;4.43;1.83;;;;;;;6.11;96.08;101670.19;5033598;28;20484;-67
2022/09/23 00:16:58;;;;;;;7.80;3.00;;;;;;;5.97;96.60;101667.00;5032883;28;20463;-68
2022/09/23 00:19:25;;;;;;;5.90;3.07;;;;;;;5.92;96.88;101669.63;5033107;28;20932;-68
2022/09/23 00:21:52;;;;;;;8.33;2.40;;;;;;;5.91;97.90;101670.66;5032860;28;20462;-68
2022/09/23 00:24:19;;;;;;;12.33;2.83;;;;;;;6.03;97.81;101674.13;5031668;28;20466;-68
2022/09/23 00:26:46;;;;;;;7.13;2.60;;;;;;;6.00;98.64;101675.41;5032898;28;20839;-68
2022/09/23 00:29:12;;;;;;;7.53;3.77;;;;;;;5.89;99.90;101668.22;5033184;28;20951;-68
2022/09/23 00:31:38;;;;;;;6.60;3.67;;;;;;;6.11;98.36;101664.81;5032568;28;20513;-68
2022/09/23 00:34:05;;;;;;;8.37;3.33;;;;;;;6.16;97.88;101663.03;5031640;28;20463;-68
2022/09/23 00:36:32;;;;;;;6.30;3.17;;;;;;;6.07;98.57;101665.31;5032818;28;20497;-70
2022/09/23 00:39:00;;;;;;;7.60;3.47;;;;;;;6.11;98.35;101660.28;5032262;28;20459;-69
2022/09/23 00:41:26;;;;;;;6.33;2.40;;;;;;;6.17;97.96;101659.28;5033147;28;20463;-69
2022/09/23 00:43:55;;;;;;;6.53;2.93;;;;;;;6.27;97.04;101658.63;5031095;28;20956;-70
2022/09/23 00:46:23;;;;;;;7.30;4.00;;;;;;;6.26;96.43;101657.00;5033140;28;20447;-70
2022/09/23 00:48:55;;;;;;;6.90;2.83;;;;;;;6.19;96.68;101657.16;5032278;28;20470;-69
2022/09/23 00:51:27;;;;;;;7.83;3.27;;;;;;;5.96;98.12;101652.75;5032117;28;20490;-69
2022/09/23 00:53:54;;;;;;;8.37;2.97;;;;;;;5.86;98.07;101651.75;5031792;28;20975;-69
2022/09/23 00:56:24;;;;;;;5.73;2.70;;;;;;;5.75;97.38;101651.56;5033049;28;20497;-69
2022/09/23 00:58:50;;;;;;;6.23;2.90;;;;;;;5.74;96.76;101646.44;5032255;28;20456;-70
2022/09/23 01:01:19;;;;;;;7.87;3.03;;;;;;;5.80;95.68;101648.16;5032961;28;20490;-70
2022/09/23 01:03:47;;;;;;;7.43;3.33;;;;;;;5.88;95.87;101650.44;5031392;28;20463;-70
2022/09/23 01:06:14;;;;;;;10.80;3.50;;;;;;;5.65;96.07;101646.00;5032595;28;20451;-70
2022/09/23 01:08:43;;;;;;;7.70;3.40;;;;;;;5.56;97.18;101642.09;5032324;28;20649;-69
2022/09/23 01:11:18;;;;;;;9.40;3.53;;;;;;;5.75;97.36;101640.00;5032749;28;20483;-70
2022/09/23 01:13:55;;;;;;;6.80;3.23;;;;;;;5.80;97.71;101637.41;5031654;28;20887;-69
2022/09/23 01:16:27;;;;;;;9.57;4.47;;;;;;;5.76;98.21;101647.03;5030944;28;21017;-70
2022/09/23 01:19:01;;;;;;;10.97;3.93;;;;;;;5.89;97.87;101635.09;5032467;28;20467;-70
2022/09/23 01:21:38;;;;;;;7.90;3.90;;;;;;;5.93;97.54;101626.38;5032737;28;20812;-70
2022/09/23 01:24:31;;;;;;;7.60;3.70;;;;;;;5.97;97.66;101632.06;5032088;28;20540;-70
2022/09/23 01:27:11;;;;;;;8.63;3.07;;;;;;;6.00;97.39;101635.06;5030676;28;20463;-70
2022/09/23 01:30:08;;;;;;;9.13;3.90;;;;;;;5.96;97.13;101625.06;5032138;28;20474;-70
2022/09/23 01:33:03;;;;;;;9.90;4.17;;;;;;;5.79;98.36;101625.00;5032462;28;20533;-70
2022/09/23 01:35:42;;;;;;;10.30;4.27;;;;;;;5.63;99.74;101621.25;5030697;28;20455;-70
2022/09/23 01:38:19;;;;;;;8.47;3.40;;;;;;;5.68;98.97;101624.03;5012971;28;20428;-70
2022/09/23 01:40:51;;;;;;;9.73;4.27;;;;;;;5.85;98.28;101618.66;5017283;28;20508;-70
2022/09/23 01:43:25;;;;;;;6.20;3.40;;;;;;;5.71;99.06;101631.63;5032653;28;20477;-70
2022/09/23 01:45:55;;;;;;;7.03;3.67;;;;;;;5.73;98.74;101624.13;5030956;28;20455;-69
2022/09/23 01:48:29;;;;;;;10.57;4.40;;;;;;;5.86;98.27;101612.22;5033801;28;20457;-70
2022/09/23 01:51:01;;;;;;;8.97;4.07;;;;;;;5.85;97.03;101612.47;5035679;28;20493;-70
2022/09/23 01:53:36;;;;;;;13.00;4.53;;;;;;;5.76;96.02;101610.19;5035628;28;20469;-70
2022/09/23 01:56:07;;;;;;;9.00;3.80;;;;;;;5.59;96.13;101609.34;5034290;28;20431;-69
2022/09/23 01:58:41;;;;;;;9.57;3.70;;;;;;;5.44;96.35;101609.06;5035983;28;20499;-70
2022/09/23 02:01:11;;;;;;;8.30;3.97;;;;;;;5.40;96.42;101616.81;5034168;28;20536;-70
2022/09/23 02:03:43;;;;;;;24.43;4.87;;;;;;;5.31;96.62;101602.97;5035981;28;20494;-70
2022/09/23 02:06:16;;;;;;;13.47;4.70;;;;;;;5.36;97.00;101612.16;5034730;28;20455;-70
2022/09/23 02:08:47;;;;;;;7.97;4.07;;;;;;;5.49;96.84;101609.16;5033888;28;20833;-70
2022/09/23 02:11:16;;;;;;;10.13;4.07;;;;;;;5.43;98.11;101600.19;5035423;28;20487;-70
2022/09/23 02:13:48;;;;;;;9.87;3.70;;;;;;;5.28;99.39;101598.06;5034644;28;20558;-70
2022/09/23 02:16:23;;;;;;;9.47;4.50;;;;;;;5.30;100.00;101606.69;5035586;28;20877;-70
2022/09/23 02:18:56;;;;;;;9.20;3.60;;;;;;;5.22;100.00;101592.81;5033531;28;20454;-70
2022/09/23 02:21:26;;;;;;;11.87;4.30;;;;;;;5.26;100.00;101600.16;5035083;28;20474;-70
2022/09/23 02:23:58;;;;;;;9.97;4.60;;;;;;;5.41;100.00;101590.78;5035600;28;20447;-70
2022/09/23 02:26:30;;;;;;;8.70;3.90;;;;;;;5.40;99.90;101586.44;5034408;28;20451;-70
2022/09/23 02:29:07;;;;;;;11.30;4.20;;;;;;;5.56;99.34;101585.66;5033250;28;20972;-69
2022/09/23 02:31:39;;;;;;;10.20;4.77;;;;;;;5.60;98.40;101580.59;5033840;28;20522;-70
2022/09/23 02:34:20;;;;;;;12.37;4.77;;;;;;;5.64;97.40;101577.19;5036044;28;20867;-70
2022/09/23 02:36:55;;;;;;;8.87;3.70;;;;;;;5.61;97.81;101574.97;5033291;28;20455;-70
2022/09/23 02:39:26;;;;;;;8.67;4.30;;;;;;;5.56;97.59;101567.66;5015507;28;20424;-70
2022/09/23 02:41:59;;;;;;;14.00;4.47;;;;;;;5.60;97.55;101556.41;5021449;28;20535;-70
2022/09/23 02:44:27;;;;;;;12.57;4.80;;;;;;;5.50;97.44;101565.94;5035342;28;20456;-70
2022/09/23 02:46:55;;;;;;;9.00;4.30;;;;;;;5.28;98.06;101568.50;5033216;28;21018;-69
2022/09/23 02:49:25;;;;;;;9.53;4.20;;;;;;;5.38;97.64;101557.13;5035061;28;20446;-69
2022/09/23 02:51:53;;;;;;;8.90;4.50;;;;;;;5.30;96.35;101560.19;5033932;28;20485;-69
2022/09/23 02:54:24;;;;;;;10.10;5.43;;;;;;;5.36;95.39;101550.34;5035155;28;20454;-69
2022/09/23 02:56:52;;;;;;;8.80;4.20;;;;;;;5.37;95.22;101549.31;5033325;28;20461;-69
2022/09/23 02:59:21;;;;;;;8.17;3.20;;;;;;;5.11;95.40;101550.72;5034754;28;20534;-70
2022/09/23 03:02:06;;;;;;;9.93;4.17;;;;;;;5.05;96.29;101545.28;5034259;28;20457;-70
2022/09/23 03:04:46;;;;;;;8.43;3.80;;;;;;;5.00;95.83;101549.72;5034993;28;20427;-69
2022/09/23 03:07:17;;;;;;;10.50;4.10;;;;;;;4.91;96.84;101551.97;5033195;28;20459;-70
2022/09/23 03:09:56;;;;;;;7.37;4.10;;;;;;;4.83;96.86;101551.56;5034865;28;20566;-70
2022/09/23 03:12:33;;;;;;;10.10;4.70;;;;;;;4.80;98.94;101550.16;5033686;28;20467;-70
2022/09/23 03:15:09;;;;;;;9.47;4.50;;;;;;;5.00;98.58;101550.56;5033650;28;20866;-69
2022/09/23 03:17:43;;;;;;;11.87;5.30;;;;;;;4.98;98.85;101549.16;5032959;28;20466;-70
2022/09/23 03:20:14;;;;;;;8.90;4.13;;;;;;;4.99;98.97;101543.53;5034596;28;20470;-71
2022/09/23 03:22:45;;;;;;;10.30;4.93;;;;;;;4.96;99.69;101540.53;5034029;28;20812;-70
2022/09/23 03:25:16;;;;;;;12.40;4.70;;;;;;;4.88;100.00;101539.03;5034578;28;20423;-70
2022/09/23 03:27:44;;;;;;;10.90;5.10;;;;;;;5.10;99.38;101541.06;5033982;28;21071;-70
2022/09/23 03:30:12;;;;;;;5.93;3.27;;;;;;;5.19;98.08;101540.41;5034054;28;20490;-71
2022/09/23 03:32:43;;;;;;;7.30;4.17;;;;;;;5.05;99.01;101531.03;5033399;28;20960;-70
2022/09/23 03:35:13;;;;;;;9.13;4.77;;;;;;;5.21;98.71;101530.25;5034433;28;20430;-70
2022/09/23 03:37:47;;;;;;;8.00;4.47;;;;;;;5.14;98.15;101529.59;5032661;28;20485;-70
2022/09/23 03:40:16;;;;;;;11.80;5.30;;;;;;;5.13;98.35;101527.94;5034405;28;20467;-71
2022/09/23 03:42:43;;;;;;;10.43;5.17;;;;;;;5.12;98.41;101525.50;5033660;28;20463;-70
2022/09/23 03:45:17;;;;;;;10.97;4.60;;;;;;;5.18;97.79;101517.31;5034129;28;20466;-70
2022/09/23 03:47:44;;;;;;;8.97;3.40;;;;;;;5.18;97.79;101516.47;5032222;28;20463;-70
2022/09/23 03:50:13;;;;;;;11.50;5.23;;;;;;;5.23;95.97;101517.41;5033942;28;20517;-70
2022/09/23 03:52:40;;;;;;;8.23;4.93;;;;;;;4.96;95.71;101519.06;5033289;28;20459;-70
2022/09/23 03:55:08;;;;;;;18.90;4.97;;;;;;;4.79;96.27;101519.00;5032367;28;20554;-69
2022/09/23 03:57:34;;;;;;;9.63;4.23;;;;;;;4.75;96.21;101513.28;5033920;28;20446;-70
2022/09/23 04:00:01;;;;;;;9.47;4.90;;;;;;;4.75;96.69;101518.66;5032616;28;20483;-70
2022/09/23 04:02:28;;;;;;;7.00;3.57;;;;;;;4.73;96.05;101507.34;5033894;28;20432;-70
2022/09/23 04:04:54;;;;;;;8.60;4.17;;;;;;;4.55;97.11;101512.88;5032003;28;20470;-70
2022/09/23 04:07:22;;;;;;;9.83;4.20;;;;;;;4.56;99.71;101514.53;5033744;28;20505;-70
2022/09/23 04:09:49;;;;;;;9.13;3.97;;;;;;;4.59;99.68;101507.88;5032757;28;21004;-69
2022/09/23 04:12:16;;;;;;;9.37;4.70;;;;;;;4.68;99.74;101509.94;5032696;28;20528;-70
2022/09/23 04:14:42;;;;;;;8.40;4.23;;;;;;;4.68;99.86;101511.78;5032500;28;20867;-70
2022/09/23 04:17:09;;;;;;;11.50;4.33;;;;;;;4.63;100.00;101503.66;5031542;28;20505;-70
2022/09/23 04:19:36;;;;;;;8.77;3.70;;;;;;;4.68;99.95;101499.19;5033073;28;20521;-70
2022/09/23 04:22:02;;;;;;;12.20;4.50;;;;;;;4.71;99.44;101500.59;5032953;28;20459;-70
2022/09/23 04:24:30;;;;;;;10.80;4.80;;;;;;;4.75;98.89;101496.38;5033431;28;20452;-69
2022/09/23 04:26:57;;;;;;;10.53;4.30;;;;;;;4.88;98.61;101506.84;5031667;28;20496;-70
2022/09/23 04:29:25;;;;;;;9.70;4.77;;;;;;;4.89;97.85;101494.22;5033166;28;20450;-70
2022/09/23 04:31:53;;;;;;;15.03;5.30;;;;;;;4.87;98.14;101494.47;5032094;28;20482;-70
2022/09/23 04:34:20;;;;;;;9.43;4.50;;;;;;;4.79;98.38;101492.16;5033379;28;20443;-70
2022/09/23 04:36:48;;;;;;;8.33;4.03;;;;;;;4.71;98.22;101490.66;5031627;28;20541;-70
2022/09/23 04:39:16;;;;;;;10.70;5.33;;;;;;;4.65;98.53;101490.78;5033055;28;20447;-70
2022/09/23 04:41:44;;;;;;;11.40;4.90;;;;;;;4.55;99.17;101492.22;5032230;28;20483;-69
2022/09/23 04:44:11;;;;;;;8.57;4.30;;;;;;;4.63;99.41;101488.38;5032818;28;20447;-70
2022/09/23 04:46:38;;;;;;;10.80;4.20;;;;;;;4.68;98.47;101491.13;5029581;28;20590;-70
2022/09/23 04:49:05;;;;;;;12.00;4.60;;;;;;;4.72;97.62;101484.25;5032835;28;20542;-70
2022/09/23 04:51:32;;;;;;;15.47;4.80;;;;;;;4.59;96.61;101481.84;5032539;28;20548;-70
2022/09/23 04:53:59;;;;;;;12.57;4.87;;;;;;;4.44;96.54;101481.56;5033072;28;20443;-70
2022/09/23 04:56:28;;;;;;;9.80;4.87;;;;;;;4.53;96.04;101475.56;5032127;28;20948;-70
2022/09/23 04:58:57;;;;;;;9.07;4.40;;;;;;;4.41;95.96;101473.97;5031308;28;20554;-70
2022/09/23 05:01:25;;;;;;;9.77;5.07;;;;;;;4.30;96.66;101475.66;5031803;28;20887;-69
2022/09/23 05:03:53;;;;;;;7.70;3.80;;;;;;;4.20;97.32;101480.78;5033069;28;20450;-69
2022/09/23 05:06:20;;;;;;;8.83;4.03;;;;;;;4.37;98.05;101480.88;5032346;28;20817;-69
2022/09/23 05:08:49;;;;;;;9.70;4.77;;;;;;;4.44;98.68;101490.41;5033134;28;20800;-69
2022/09/23 05:11:17;;;;;;;11.20;5.13;;;;;;;4.42;99.26;101481.78;5031590;28;20486;-69
2022/09/23 05:13:43;;;;;;;11.03;4.20;;;;;;;4.51;98.95;101483.03;5032781;28;20454;-70
2022/09/23 05:16:12;;;;;;;9.30;4.20;;;;;;;4.66;98.14;101479.84;5032054;28;20512;-69
2022/09/23 05:18:41;;;;;;;11.50;4.13;;;;;;;4.65;97.94;101483.59;5033014;28;20479;-69
2022/09/23 05:21:08;;;;;;;8.10;4.60;;;;;;;4.70;98.32;101482.88;5032282;28;20479;-70
2022/09/23 05:23:35;;;;;;;13.47;5.40;;;;;;;4.71;98.61;101481.81;5034686;28;20434;-70
2022/09/23 05:26:04;;;;;;;8.87;4.50;;;;;;;4.72;98.64;101483.44;5035150;28;20467;-70
2022/09/23 05:28:32;;;;;;;8.23;4.83;;;;;;;4.83;98.82;101487.94;5036739;28;20847;-69
2022/09/23 05:31:02;;;;;;;9.13;4.27;;;;;;;4.91;97.97;101489.41;5030548;28;20478;-73
2022/09/23 05:34:01;;;;;;;10.13;4.33;;;;;;;4.73;99.34;101487.75;5036279;28;20455;-71
2022/09/23 05:36:30;;;;;;;11.00;5.10;;;;;;;4.73;99.88;101487.75;5033198;28;20489;-70
2022/09/23 05:38:57;;;;;;;9.90;4.47;;;;;;;4.85;99.49;101487.69;5034558;28;20467;-70
2022/09/23 05:41:25;;;;;;;10.27;5.37;;;;;;;4.74;100.00;101484.84;5034515;28;20482;-70
2022/09/23 05:43:52;;;;;;;9.47;5.27;;;;;;;4.95;100.00;101479.81;5035427;28;20483;-70
2022/09/23 05:46:21;;;;;;;13.40;4.20;;;;;;;4.87;100.00;101478.38;5030913;28;20464;-70
2022/09/23 05:48:47;;;;;;;20.67;4.60;;;;;;;4.75;99.64;101483.78;5035964;28;20485;-70
2022/09/23 05:51:17;;;;;;;13.87;5.77;;;;;;;4.71;99.97;101482.63;5035493;28;20495;-70
2022/09/23 05:53:45;;;;;;;7.63;4.27;;;;;;;4.71;100.00;101479.94;5035627;28;20454;-69
2022/09/23 05:56:12;;;;;;;11.27;4.93;;;;;;;4.84;99.78;101478.03;5033076;28;20841;-71
2022/09/23 05:58:39;;;;;;;8.40;5.00;;;;;;;4.98;99.76;101484.72;5034443;28;20467;-72
2022/09/23 06:01:10;;;;;;;9.70;5.10;;;;;;;5.28;98.54;101482.56;5035562;28;20569;-73
2022/09/23 06:03:37;;;;;;;15.17;6.03;;;;;;;5.27;100.00;101480.13;5036184;28;20470;-72
2022/09/23 06:06:04;;;;;;;9.10;5.17;;;;;;;5.41;100.00;101472.56;5035256;28;20467;-70
2022/09/23 06:08:33;;;;;;;10.07;5.40;;;;;;;5.47;100.00;101476.94;5034090;28;20465;-70
2022/09/23 06:11:06;;;;;;;11.57;5.47;;;;;;;5.63;100.00;101475.31;5031205;28;20467;-70
2022/09/23 06:13:34;;;;;;;9.90;5.43;;;;;;;5.70;100.00;101475.94;5028703;28;20477;-69
2022/09/23 06:16:00;;;;;;;8.13;4.50;;;;;;;5.87;100.00;101482.13;5035737;28;20546;-69
2022/09/23 06:18:27;;;;;;;11.70;5.23;;;;;;;6.01;100.00;101482.59;5032327;28;20521;-70
2022/09/23 06:20:53;;;;;;;12.53;5.57;;;;;;;6.16;100.00;101482.81;5035381;28;20467;-69
2022/09/23 06:23:20;;;;;;;9.27;4.47;;;;;;;6.27;100.00;101486.44;5034924;28;21005;-69
2022/09/23 06:25:47;;;;;;;10.57;4.53;;;;;;;6.35;100.00;101477.94;5032874;28;20456;-69
2022/09/23 06:28:14;;;;;;;10.90;4.77;;;;;;;6.46;100.00;101478.84;5034080;28;20454;-69
2022/09/23 06:30:41;;;;;;;14.60;5.27;;;;;;;6.51;100.00;101477.06;5035359;28;20581;-69
2022/09/23 06:33:08;;;;;;;11.37;5.60;;;;;;;6.67;100.00;101483.41;5034458;28;20511;-69
2022/09/23 06:35:35;;;;;;;10.60;5.43;;;;;;;6.77;100.00;101477.31;5031877;28;20936;-70
2022/09/23 06:38:04;;;;;;;10.37;5.60;;;;;;;6.96;100.00;101485.88;5020143;28;20443;-70
2022/09/23 06:40:31;;;;;;;9.90;5.70;;;;;;;7.05;100.00;101481.66;5034784;28;20537;-69
2022/09/23 06:43:00;;;;;;;11.10;5.33;;;;;;;7.18;100.00;101489.31;5034378;28;20546;-69
2022/09/23 06:45:27;;;;;;;10.67;4.63;;;;;;;7.36;100.00;101490.81;5031971;28;20818;-69
2022/09/23 06:47:56;;;;;;;11.23;5.10;;;;;;;7.57;100.00;101489.13;5035492;28;20431;-70
2022/09/23 06:50:24;;;;;;;12.30;5.53;;;;;;;7.71;100.00;101489.47;5035251;28;20470;-70
2022/09/23 06:52:54;;;;;;;12.13;5.47;;;;;;;7.87;100.00;101493.88;5032586;28;20479;-69
2022/09/23 06:55:22;;;;;;;10.33;4.93;;;;;;;8.04;100.00;101494.53;5032150;28;20455;-69
2022/09/23 06:57:48;;;;;;;12.50;6.67;;;;;;;8.18;100.00;101491.34;5034215;28;20852;-70
2022/09/23 07:00:16;;;;;;;10.80;5.33;;;;;;;8.42;100.00;101494.47;5034377;28;20470;-69
2022/09/23 07:02:43;;;;;;;9.40;4.73;;;;;;;8.69;100.00;101495.09;5035073;28;20519;-69
2022/09/23 07:05:09;;;;;;;9.63;4.53;;;;;;;8.96;100.00;101496.78;5033691;28;20944;-70
2022/09/23 07:07:37;;;;;;;10.20;4.83;;;;;;;9.22;100.00;101493.03;5034804;28;20451;-70
2022/09/23 07:10:04;;;;;;;11.20;4.40;;;;;;;9.46;100.00;101493.31;5033563;28;20471;-69
2022/09/23 07:12:31;;;;;;;9.37;4.80;;;;;;;9.65;100.00;101490.03;5033717;28;20494;-70
2022/09/23 07:14:57;;;;;;;9.13;4.37;;;;;;;9.85;100.00;101490.84;5034483;28;20478;-70
2022/09/23 07:17:25;;;;;;;9.77;4.40;;;;;;;10.06;100.00;101496.22;5033426;28;20987;-70
2022/09/23 07:19:53;;;;;;;10.33;4.47;;;;;;;10.21;100.00;101493.44;5032216;28;20482;-70
2022/09/23 07:22:20;;;;;;;8.03;4.10;;;;;;;10.37;98.83;101490.72;5024116;28;20484;-70
2022/09/23 07:24:46;;;;;;;10.43;4.13;;;;;;;10.59;97.98;101493.88;5014581;28;20440;-70
2022/09/23 07:27:15;;;;;;;7.77;3.10;;;;;;;10.75;96.43;101497.31;5031728;28;20466;-72
2022/09/23 07:29:41;;;;;;;8.67;3.20;;;;;;;10.81;94.31;101488.06;5033109;28;20988;-71
2022/09/23 07:32:07;;;;;;;6.37;3.20;;;;;;;10.98;94.63;101493.09;5032604;28;20556;-69
2022/09/23 07:34:36;;;;;;;6.77;3.40;;;;;;;11.16;93.82;101492.44;5033691;28;20463;-70
2022/09/23 07:37:03;;;;;;;8.37;3.90;;;;;;;11.35;93.42;101503.41;5033030;28;20978;-70
2022/09/23 07:39:29;;;;;;;6.80;3.60;;;;;;;11.53;92.70;101494.56;5034374;28;20443;-70
2022/09/23 07:41:55;;;;;;;9.07;2.63;;;;;;;11.68;91.40;101498.25;5033244;28;20486;-69
2022/09/23 07:44:22;;;;;;;7.27;2.80;;;;;;;11.79;90.90;101495.16;5032135;28;20459;-69
2022/09/23 07:46:49;;;;;;;8.80;3.93;;;;;;;11.93;90.16;101497.22;5034112;28;20899;-69
2022/09/23 07:49:16;;;;;;;7.93;4.00;;;;;;;12.07;88.85;101498.97;5032513;28;20459;-69
2022/09/23 07:51:44;;;;;;;7.27;3.40;;;;;;;12.18;88.11;101498.88;5034000;28;20459;-70
2022/09/23 07:54:13;;;;;;;5.63;3.33;;;;;;;12.19;88.24;101495.84;5033727;28;20451;-70
2022/09/23 07:56:40;;;;;;;6.67;3.30;;;;;;;12.31;87.99;101495.44;5034256;28;20446;-70
2022/09/23 07:59:08;;;;;;;11.03;2.63;;;;;;;12.34;86.98;101490.22;5032675;28;20467;-70
2022/09/23 08:01:37;;;;;;;6.53;3.23;;;;;;;12.36;86.95;101490.75;5033874;28;20467;-70
2022/09/23 08:04:06;;;;;;;7.13;3.93;;;;;;;12.40;86.61;101492.91;5032886;28;20463;-70
2022/09/23 08:06:33;;;;;;;8.43;3.30;;;;;;;12.56;85.42;101497.03;5033832;28;20443;-70
2022/09/23 08:09:01;;;;;;;7.77;3.97;;;;;;;12.71;84.40;101499.56;5031050;28;20490;-70
2022/09/23 08:11:28;;;;;;;6.10;2.73;;;;;;;12.86;84.62;101487.66;5033686;28;20455;-70
2022/09/23 08:13:55;;;;;;;7.30;3.33;;;;;;;13.01;83.42;101502.91;5032704;28;20490;-70
2022/09/23 08:16:21;;;;;;;6.80;3.20;;;;;;;13.12;82.78;101496.25;5032482;28;20959;-70
2022/09/23 08:18:48;;;;;;;12.37;4.27;;;;;;;13.19;82.16;101493.94;5032771;28;20463;-70
2022/09/23 08:21:19;;;;;;;6.73;3.20;;;;;;;13.26;83.10;101494.41;5032361;28;21014;-70
2022/09/23 08:23:45;;;;;;;6.23;2.43;;;;;;;13.33;82.90;101491.31;5033714;28;20424;-70
2022/09/23 08:26:13;;;;;;;7.53;2.80;;;;;;;13.41;81.54;101495.25;5032861;28;20459;-69
2022/09/23 08:28:40;;;;;;;5.10;2.70;;;;;;;13.54;81.29;101483.59;5033200;28;20493;-69
2022/09/23 08:31:07;;;;;;;4.77;2.37;;;;;;;13.61;80.61;101489.47;5032231;28;20494;-70
2022/09/23 08:33:33;;;;;;;5.80;2.67;;;;;;;13.67;81.01;101477.38;5033362;28;20479;-70
2022/09/23 08:36:01;;;;;;;6.00;2.97;;;;;;;13.79;80.70;101485.88;5032645;28;20469;-69
2022/09/23 08:38:28;;;;;;;6.30;2.20;;;;;;;13.82;80.18;101477.13;5033328;28;20450;-70
2022/09/23 08:41:05;;;;;;;8.10;2.90;;;;;;;13.89;80.14;101474.78;5031973;28;21042;-69
2022/09/23 08:43:36;;;;;;;5.77;2.07;;;;;;;13.96;79.93;101479.06;5032018;28;20463;-70
2022/09/23 08:46:05;;;;;;;6.10;2.33;;;;;;;14.01;79.47;101476.22;5033036;28;20935;-70
2022/09/23 08:48:34;;;;;;;8.70;2.40;;;;;;;14.02;77.38;101470.47;5032454;28;20513;-70
2022/09/23 08:51:04;;;;;;;5.03;2.10;;;;;;;14.07;78.14;101475.00;5032032;28;20482;-70
2022/09/23 08:53:34;;;;;;;4.03;1.70;;;;;;;14.13;78.81;101471.88;5032422;28;20490;-70
2022/09/23 08:56:06;;;;;;;6.20;3.03;;;;;;;14.16;76.01;101472.38;5031184;28;20914;-69
2022/09/23 08:58:44;;;;;;;5.13;2.00;;;;;;;14.22;76.57;101474.72;5032285;28;20455;-69
2022/09/23 09:01:19;;;;;;;5.27;2.70;;;;;;;14.34;76.64;101475.03;5029491;28;20487;-73
2022/09/23 09:03:50;;;;;;;5.77;2.10;;;;;;;14.36;76.95;101469.25;5032490;28;20463;-70
2022/09/23 09:06:21;;;;;;;4.10;1.63;;;;;;;14.45;73.21;101469.34;5033134;28;20526;-69
2022/09/23 09:08:55;;;;;;;5.00;2.20;;;;;;;14.60;72.52;101471.75;5031035;28;20866;-70
2022/09/23 09:11:27;;;;;;;4.30;1.70;;;;;;;14.69;71.09;101469.91;5031575;28;21077;-70
2022/09/23 09:14:02;;;;;;;4.13;1.50;;;;;;;14.75;70.17;101471.44;5032614;28;20824;-69
2022/09/23 09:16:46;;;;;;;6.03;1.93;;;;;;;14.75;71.33;101465.97;5031974;28;20446;-70
2022/09/23 09:19:19;;;;;;;5.77;2.00;;;;;;;14.85;70.91;101471.19;5013257;28;20436;-70
2022/09/23 09:21:47;;;;;;;3.60;1.33;;;;;;;14.88;71.96;101470.59;5021047;28;20479;-70
2022/09/23 09:24:18;;;;;;;4.20;1.63;;;;;;;15.02;70.66;101464.28;5031861;28;20456;-70
2022/09/23 09:26:45;;;;;;;4.33;1.57;;;;;;;15.06;69.54;101466.06;5032233;28;20505;-70
2022/09/23 09:29:16;;;;;;;6.50;2.00;;;;;;;15.08;69.45;101463.81;5032852;28;20455;-70
2022/09/23 09:31:46;;;;;;;3.60;1.30;;;;;;;15.11;69.09;101460.50;5031810;28;21051;-70
2022/09/23 09:34:23;;;;;;;3.60;1.10;;;;;;;15.20;69.28;101462.47;5029087;28;20486;-70
2022/09/23 09:36:58;;;;;;;4.93;1.80;;;;;;;15.19;69.25;101456.22;5012729;28;20428;-69
2022/09/23 09:39:26;;;;;;;4.57;2.00;;;;;;;15.16;69.21;101459.56;5022055;28;20463;-69
2022/09/23 09:41:57;;;;;;;4.20;1.60;;;;;;;15.34;66.57;101446.84;5032726;28;20443;-70
2022/09/23 09:44:30;;;;;;;4.90;1.83;;;;;;;15.44;66.57;101446.56;5031215;28;20459;-70
2022/09/23 09:47:10;;;;;;;5.70;1.77;;;;;;;15.59;67.18;101442.66;5031924;28;20458;-69
2022/09/23 09:49:45;;;;;;;3.73;1.50;;;;;;;15.62;68.23;101437.34;5031344;28;20990;-69
2022/09/23 09:52:14;;;;;;;3.60;1.50;;;;;;;15.70;69.30;101432.28;5032602;28;20423;-69
2022/09/23 09:54:42;;;;;;;3.60;1.40;;;;;;;15.76;63.25;101440.03;5031637;28;20467;-70
2022/09/23 09:57:30;;;;;;;3.40;1.10;;;;;;;15.83;61.98;101434.91;5032672;28;20522;-70
2022/09/23 09:59:59;;;;;;;4.10;1.60;;;;;;;15.92;61.47;101434.94;5030090;28;20521;-69
2022/09/23 10:02:29;;;;;;;3.67;1.43;;;;;;;16.02;60.76;101422.91;5030476;28;20471;-70
2022/09/23 10:05:00;;;;;;;4.00;1.30;;;;;;;16.12;60.49;101414.44;5032616;28;20439;-72
2022/09/23 10:07:29;;;;;;;6.07;1.40;;;;;;;16.12;62.30;101422.63;5029479;28;20948;-71
2022/09/23 10:09:56;;;;;;;3.50;1.27;;;;;;;16.17;63.08;101419.75;5027901;28;20907;-69
2022/09/23 10:12:24;;;;;;;5.60;1.77;;;;;;;16.18;59.27;101426.00;5034774;28;20474;-69
2022/09/23 10:14:55;;;;;;;3.30;0.93;;;;;;;16.30;58.67;101418.00;5029002;28;20450;-70
2022/09/23 10:17:26;;;;;;;4.40;1.50;;;;;;;16.38;61.25;101415.28;5015985;28;20412;-70
2022/09/23 10:19:59;;;;;;;5.83;1.10;;;;;;;16.47;61.63;101419.94;5031861;28;20479;-70
2022/09/23 10:22:28;;;;;;;3.77;1.40;;;;;;;16.55;56.76;101410.94;5035949;28;20432;-69
2022/09/23 10:25:00;;;;;;;4.57;1.03;;;;;;;16.59;57.65;101415.44;5034752;28;20456;-70
2022/09/23 10:27:30;;;;;;;10.17;1.17;;;;;;;16.64;55.86;101414.47;5034232;28;20928;-70
2022/09/23 10:29:59;;;;;;;3.30;0.97;;;;;;;16.82;56.38;101416.16;5032098;28;20610;-70
2022/09/23 10:32:29;;;;;;;3.67;1.00;;;;;;;17.01;54.67;101415.00;5034089;28;20974;-70
2022/09/23 10:35:03;;;;;;;5.57;1.30;;;;;;;17.19;54.95;101416.56;5035695;28;20443;-69
2022/09/23 10:37:33;;;;;;;4.17;1.00;;;;;;;17.15;52.79;101415.59;5034720;28;20458;-70
2022/09/23 10:48:38;;;;;;;3.30;0.83;;;;;;;17.26;51.93;101411.38;5032201;28;20482;-70
2022/09/23 10:51:14;;;;;;;3.97;1.20;;;;;;;17.45;52.15;101407.50;5034395;28;21053;-70
2022/09/23 10:53:52;;;;;;;4.57;1.50;;;;;;;17.49;53.58;101394.75;5034924;28;20498;-70
2022/09/23 10:56:30;;;;;;;3.30;1.27;;;;;;;17.63;53.93;101398.88;5035253;28;20427;-70
2022/09/23 10:59:29;;;;;;;3.43;1.20;;;;;;;17.88;55.39;101405.41;5035199;28;20427;-70
2022/09/23 11:02:10;;;;;;;3.57;0.90;;;;;;;17.98;49.25;101403.44;5034876;28;20931;-69
2022/09/23 11:04:53;;;;;;;3.17;0.83;;;;;;;17.90;45.69;101396.84;5035102;28;20478;-70
2022/09/23 11:07:25;;;;;;;4.03;1.03;;;;;;;17.95;46.85;101393.13;5035084;28;20484;-70
2022/09/23 11:10:17;;;;;;;3.20;0.90;;;;;;;18.04;46.72;101385.63;5034629;28;20984;-70
2022/09/23 11:12:54;;;;;;;4.47;1.10;;;;;;;18.53;45.76;101386.75;5034517;28;20811;-70
2022/09/23 11:15:34;;;;;;;3.07;0.83;;;;;;;19.06;43.21;101385.16;5034882;28;20435;-70
2022/09/23 11:18:17;;;;;;;3.27;0.90;;;;;;;19.67;43.14;101389.19;5034951;28;20526;-70
2022/09/23 11:20:53;;;;;;;3.50;0.90;;;;;;;20.05;43.05;101388.81;5034315;28;20520;-69
2022/09/23 11:23:54;;;;;;;3.00;0.60;;;;;;;20.23;40.54;101378.34;5034711;28;20465;-70
2022/09/23 11:26:32;;;;;;;3.10;0.80;;;;;;;20.56;41.33;101376.25;5034713;28;20453;-69
2022/09/23 11:29:21;;;;;;;3.80;1.00;;;;;;;20.74;40.45;101365.75;5034675;28;20506;-70
2022/09/23 11:31:57;;;;;;;3.33;0.90;;;;;;;20.92;42.50;101367.03;5031392;28;20471;-70
2022/09/23 11:34:53;;;;;;;3.50;1.07;;;;;;;21.11;42.47;101368.28;5034494;28;20548;-70
2022/09/23 11:37:25;;;;;;;4.07;1.07;;;;;;;20.99;42.76;101363.66;5034534;28;20427;-70
2022/09/23 11:39:57;;;;;;;3.10;0.87;;;;;;;21.38;42.76;101356.47;5034417;28;20473;-69
2022/09/23 11:42:27;;;;;;;3.30;1.00;;;;;;;22.25;41.79;101353.75;5034481;28;20435;-70
2022/09/23 11:44:59;;;;;;;3.60;1.10;;;;;;;22.98;40.58;101360.38;5034370;28;20485;-70
2022/09/23 11:47:31;;;;;;;7.87;1.03;;;;;;;23.73;39.85;101359.69;5034407;28;20431;-69
2022/09/23 11:50:02;;;;;;;2.90;0.87;;;;;;;24.11;38.67;101358.66;5034291;28;20471;-70
2022/09/23 11:52:34;;;;;;;2.90;0.67;;;;;;;23.31;36.42;101349.50;5034268;28;20416;-70